sensor_id;sensor_type;location;lat;lon;timestamp;temperature;humidity
40848;DHT22;26570;50.962;5.340;2022-12-24T01:02:40;11.40;99.90
40848;DHT22;26570;50.962;5.340;2022-12-24T01:05:33;11.40;99.90
40848;DHT22;26570;50.962;5.340;2022-12-24T01:08:30;11.40;99.90
40848;DHT22;26570;50.962;5.340;2022-12-24T01:11:17;11.50;99.90
40848;DHT22;26570;50.962;5.340;2022-12-24T01:14:06;11.30;99.90
40848;DHT22;26570;50.962;5.340;2022-12-24T01:16:54;11.50;99.90
40848;DHT22;26570;50.962;5.340;2022-12-24T01:19:41;11.70;99.90
40848;DHT22;26570;50.962;5.340;2022-12-24T01:22:32;11.60;99.90
40848;DHT22;26570;50.962;5.340;2022-12-24T01:25:21;11.60;99.90
40848;DHT22;26570;50.962;5.340;2022-12-24T01:28:15;11.70;99.90
40848;DHT22;26570;50.962;5.340;2022-12-24T01:31:16;12.00;99.90
40848;DHT22;26570;50.962;5.340;2022-12-24T01:34:09;11.80;99.90
40848;DHT22;26570;50.962;5.340;2022-12-24T01:37:00;11.80;99.90
40848;DHT22;26570;50.962;5.340;2022-12-24T01:39:53;11.90;99.90
40848;DHT22;26570;50.962;5.340;2022-12-24T01:43:04;11.80;99.90
40848;DHT22;26570;50.962;5.340;2022-12-24T01:46:22;11.70;99.90
40848;DHT22;26570;50.962;5.340;2022-12-24T01:49:16;11.70;99.90
40848;DHT22;26570;50.962;5.340;2022-12-24T01:52:31;11.80;99.90
40848;DHT22;26570;50.962;5.340;2022-12-24T01:55:19;11.70;99.90
40848;DHT22;26570;50.962;5.340;2022-12-24T01:58:09;11.70;99.90
40848;DHT22;26570;50.962;5.340;2022-12-24T02:01:03;11.40;99.90
40848;DHT22;26570;50.962;5.340;2022-12-24T02:03:54;11.50;99.90
40848;DHT22;26570;50.962;5.340;2022-12-24T02:06:42;11.40;99.90
40848;DHT22;26570;50.962;5.340;2022-12-24T02:09:29;11.40;99.90
40848;DHT22;26570;50.962;5.340;2022-12-24T02:12:18;11.40;99.90
40848;DHT22;26570;50.962;5.340;2022-12-24T02:15:13;11.50;99.90
40848;DHT22;26570;50.962;5.340;2022-12-24T02:18:06;11.30;99.90
40848;DHT22;26570;50.962;5.340;2022-12-24T02:31:07;11.20;99.90
40848;DHT22;26570;50.962;5.340;2022-12-24T02:34:28;11.10;99.90
40848;DHT22;26570;50.962;5.340;2022-12-24T02:37:48;11.10;99.90
40848;DHT22;26570;50.962;5.340;2022-12-24T02:43:59;11.10;99.90
40848;DHT22;26570;50.962;5.340;2022-12-24T02:46:47;11.30;99.90
40848;DHT22;26570;50.962;5.340;2022-12-24T02:49:37;11.30;99.90
40848;DHT22;26570;50.962;5.340;2022-12-24T02:52:42;11.30;99.90
40848;DHT22;26570;50.962;5.340;2022-12-24T03:12:32;11.10;99.90
40848;DHT22;26570;50.962;5.340;2022-12-24T03:15:36;11.20;99.90
40848;DHT22;26570;50.962;5.340;2022-12-24T03:18:25;11.10;99.90
40848;DHT22;26570;50.962;5.340;2022-12-24T03:21:24;11.20;99.90
40848;DHT22;26570;50.962;5.340;2022-12-24T03:24:13;11.20;99.90
40848;DHT22;26570;50.962;5.340;2022-12-24T03:27:05;12.00;99.90
40848;DHT22;26570;50.962;5.340;2022-12-24T03:29:54;11.20;99.90
40848;DHT22;26570;50.962;5.340;2022-12-24T03:32:45;11.00;99.90
40848;DHT22;26570;50.962;5.340;2022-12-24T03:35:35;11.10;99.90
40848;DHT22;26570;50.962;5.340;2022-12-24T03:38:23;10.90;99.90
40848;DHT22;26570;50.962;5.340;2022-12-24T03:41:22;11.40;99.90
40848;DHT22;26570;50.962;5.340;2022-12-24T03:44:11;11.10;99.90
40848;DHT22;26570;50.962;5.340;2022-12-24T03:46:59;11.10;99.90
40848;DHT22;26570;50.962;5.340;2022-12-24T03:49:53;11.10;99.90
40848;DHT22;26570;50.962;5.340;2022-12-24T03:52:45;11.10;99.90
40848;DHT22;26570;50.962;5.340;2022-12-24T03:55:41;11.20;99.90
40848;DHT22;26570;50.962;5.340;2022-12-24T03:58:57;11.20;99.90
40848;DHT22;26570;50.962;5.340;2022-12-24T04:02:10;11.20;99.90
40848;DHT22;26570;50.962;5.340;2022-12-24T04:05:05;11.20;99.90
40848;DHT22;26570;50.962;5.340;2022-12-24T04:07:55;11.20;99.90
40848;DHT22;26570;50.962;5.340;2022-12-24T04:11:04;11.30;99.90
40848;DHT22;26570;50.962;5.340;2022-12-24T04:13:52;11.10;99.90
40848;DHT22;26570;50.962;5.340;2022-12-24T04:16:43;11.10;99.90
40848;DHT22;26570;50.962;5.340;2022-12-24T04:19:37;11.50;99.90
40848;DHT22;26570;50.962;5.340;2022-12-24T04:23:02;11.10;99.90
40848;DHT22;26570;50.962;5.340;2022-12-24T04:25:50;11.10;99.90
40848;DHT22;26570;50.962;5.340;2022-12-24T04:28:40;11.10;99.90
40848;DHT22;26570;50.962;5.340;2022-12-24T04:31:30;11.10;99.90
40848;DHT22;26570;50.962;5.340;2022-12-24T04:34:20;11.20;99.90
40848;DHT22;26570;50.962;5.340;2022-12-24T04:37:08;11.20;99.90
40848;DHT22;26570;50.962;5.340;2022-12-24T04:40:02;11.10;99.90
40848;DHT22;26570;50.962;5.340;2022-12-24T04:43:15;11.20;99.90
40848;DHT22;26570;50.962;5.340;2022-12-24T04:46:10;11.30;99.90
40848;DHT22;26570;50.962;5.340;2022-12-24T04:48:59;11.30;99.90
40848;DHT22;26570;50.962;5.340;2022-12-24T04:51:50;11.20;99.90
40848;DHT22;26570;50.962;5.340;2022-12-24T04:54:37;11.30;99.90
40848;DHT22;26570;50.962;5.340;2022-12-24T04:57:25;11.20;99.90
40848;DHT22;26570;50.962;5.340;2022-12-24T05:00:18;11.80;99.90
40848;DHT22;26570;50.962;5.340;2022-12-24T05:03:50;11.20;99.90
40848;DHT22;26570;50.962;5.340;2022-12-24T05:06:36;11.20;99.90
40848;DHT22;26570;50.962;5.340;2022-12-24T05:09:52;11.20;99.90
40848;DHT22;26570;50.962;5.340;2022-12-24T05:12:47;11.10;99.90
40848;DHT22;26570;50.962;5.340;2022-12-24T05:16:00;11.10;99.90
40848;DHT22;26570;50.962;5.340;2022-12-24T05:18:51;11.10;99.90
40848;DHT22;26570;50.962;5.340;2022-12-24T05:21:38;11.20;99.90
40848;DHT22;26570;50.962;5.340;2022-12-24T05:24:29;11.10;99.90
40848;DHT22;26570;50.962;5.340;2022-12-24T05:27:56;11.10;99.90
40848;DHT22;26570;50.962;5.340;2022-12-24T05:30:43;11.00;99.90
40848;DHT22;26570;50.962;5.340;2022-12-24T05:33:31;11.10;99.90
40848;DHT22;26570;50.962;5.340;2022-12-24T05:36:19;11.10;99.90
40848;DHT22;26570;50.962;5.340;2022-12-24T05:39:29;11.10;99.90
40848;DHT22;26570;50.962;5.340;2022-12-24T05:42:20;11.10;99.90
40848;DHT22;26570;50.962;5.340;2022-12-24T05:45:33;11.20;99.90
40848;DHT22;26570;50.962;5.340;2022-12-24T05:48:22;11.20;99.90
40848;DHT22;26570;50.962;5.340;2022-12-24T05:51:32;11.20;99.90
40848;DHT22;26570;50.962;5.340;2022-12-24T05:54:20;11.00;99.90
40848;DHT22;26570;50.962;5.340;2022-12-24T05:57:11;11.20;99.90
40848;DHT22;26570;50.962;5.340;2022-12-24T06:00:30;11.20;99.90
40848;DHT22;26570;50.962;5.340;2022-12-24T06:03:16;11.20;99.90
40848;DHT22;26570;50.962;5.340;2022-12-24T06:06:05;11.30;99.90
40848;DHT22;26570;50.962;5.340;2022-12-24T06:09:15;11.30;99.90
40848;DHT22;26570;50.962;5.340;2022-12-24T06:12:22;11.40;99.90
40848;DHT22;26570;50.962;5.340;2022-12-24T06:15:34;11.40;99.90
40848;DHT22;26570;50.962;5.340;2022-12-24T06:18:52;11.40;99.90
40848;DHT22;26570;50.962;5.340;2022-12-24T06:21:43;11.30;99.90
40848;DHT22;26570;50.962;5.340;2022-12-24T06:24:52;11.50;99.90
40848;DHT22;26570;50.962;5.340;2022-12-24T06:28:02;11.20;99.90
40848;DHT22;26570;50.962;5.340;2022-12-24T06:30:49;11.40;99.90
40848;DHT22;26570;50.962;5.340;2022-12-24T06:34:16;11.40;99.90
40848;DHT22;26570;50.962;5.340;2022-12-24T06:37:29;11.40;99.90
40848;DHT22;26570;50.962;5.340;2022-12-24T06:40:19;11.30;99.90
40848;DHT22;26570;50.962;5.340;2022-12-24T06:43:09;11.40;99.90
40848;DHT22;26570;50.962;5.340;2022-12-24T06:45:59;11.50;99.90
40848;DHT22;26570;50.962;5.340;2022-12-24T06:48:46;11.40;99.90
40848;DHT22;26570;50.962;5.340;2022-12-24T06:51:33;11.20;99.90
40848;DHT22;26570;50.962;5.340;2022-12-24T06:54:20;11.30;99.90
40848;DHT22;26570;50.962;5.340;2022-12-24T06:57:07;11.30;99.90
40848;DHT22;26570;50.962;5.340;2022-12-24T06:59:59;11.30;99.90
40848;DHT22;26570;50.962;5.340;2022-12-24T07:02:46;11.40;99.90
40848;DHT22;26570;50.962;5.340;2022-12-24T07:05:37;11.20;99.90
40848;DHT22;26570;50.962;5.340;2022-12-24T07:08:44;11.20;99.90
40848;DHT22;26570;50.962;5.340;2022-12-24T07:11:31;11.20;99.90
40848;DHT22;26570;50.962;5.340;2022-12-24T07:14:21;11.00;99.90
40848;DHT22;26570;50.962;5.340;2022-12-24T07:17:32;11.10;99.90
40848;DHT22;26570;50.962;5.340;2022-12-24T07:20:18;11.10;99.90
40848;DHT22;26570;50.962;5.340;2022-12-24T07:23:31;11.10;99.90
40848;DHT22;26570;50.962;5.340;2022-12-24T07:26:23;11.20;99.90
40848;DHT22;26570;50.962;5.340;2022-12-24T07:29:10;10.90;99.90
40848;DHT22;26570;50.962;5.340;2022-12-24T07:32:30;11.10;99.90
40848;DHT22;26570;50.962;5.340;2022-12-24T07:35:28;11.10;99.90
40848;DHT22;26570;50.962;5.340;2022-12-24T07:38:15;11.00;99.90
40848;DHT22;26570;50.962;5.340;2022-12-24T07:41:34;10.90;99.90
40848;DHT22;26570;50.962;5.340;2022-12-24T07:44:48;10.80;99.90
40848;DHT22;26570;50.962;5.340;2022-12-24T07:47:35;10.90;99.90
40848;DHT22;26570;50.962;5.340;2022-12-24T07:50:47;10.80;99.90
40848;DHT22;26570;50.962;5.340;2022-12-24T07:53:57;10.90;99.90
40848;DHT22;26570;50.962;5.340;2022-12-24T07:57:16;10.80;99.90
40848;DHT22;26570;50.962;5.340;2022-12-24T08:00:03;10.80;99.90
40848;DHT22;26570;50.962;5.340;2022-12-24T08:03:18;10.90;99.90
40848;DHT22;26570;50.962;5.340;2022-12-24T08:06:28;11.00;99.90
40848;DHT22;26570;50.962;5.340;2022-12-24T08:09:21;11.10;99.90
40848;DHT22;26570;50.962;5.340;2022-12-24T08:12:17;11.00;99.90
40848;DHT22;26570;50.962;5.340;2022-12-24T08:15:04;11.20;99.90
40848;DHT22;26570;50.962;5.340;2022-12-24T08:17:54;11.00;99.90
40848;DHT22;26570;50.962;5.340;2022-12-24T08:20:41;11.20;99.90
40848;DHT22;26570;50.962;5.340;2022-12-24T08:23:54;11.20;99.90
40848;DHT22;26570;50.962;5.340;2022-12-24T08:27:03;11.30;99.90
40848;DHT22;26570;50.962;5.340;2022-12-24T08:30:14;11.20;99.90
40848;DHT22;26570;50.962;5.340;2022-12-24T08:33:29;11.20;99.90
40848;DHT22;26570;50.962;5.340;2022-12-24T08:36:16;10.90;99.90
40848;DHT22;26570;50.962;5.340;2022-12-24T08:39:41;11.30;99.90
40848;DHT22;26570;50.962;5.340;2022-12-24T08:42:28;11.50;99.90
40848;DHT22;26570;50.962;5.340;2022-12-24T08:45:39;11.50;99.90
40848;DHT22;26570;50.962;5.340;2022-12-24T08:48:53;11.50;99.90
40848;DHT22;26570;50.962;5.340;2022-12-24T08:51:40;11.40;99.90
40848;DHT22;26570;50.962;5.340;2022-12-24T08:54:28;11.40;99.90
40848;DHT22;26570;50.962;5.340;2022-12-24T08:57:17;11.50;99.90
40848;DHT22;26570;50.962;5.340;2022-12-24T09:00:27;11.50;99.90
40848;DHT22;26570;50.962;5.340;2022-12-24T09:03:45;11.50;99.90
40848;DHT22;26570;50.962;5.340;2022-12-24T09:06:55;12.00;99.90
40848;DHT22;26570;50.962;5.340;2022-12-24T09:10:09;12.10;99.90
40848;DHT22;26570;50.962;5.340;2022-12-24T09:13:19;11.50;99.90
40848;DHT22;26570;50.962;5.340;2022-12-24T09:16:09;11.50;99.90
40848;DHT22;26570;50.962;5.340;2022-12-24T09:18:56;11.60;99.90
40848;DHT22;26570;50.962;5.340;2022-12-24T09:21:50;11.70;99.90
40848;DHT22;26570;50.962;5.340;2022-12-24T09:25:00;11.70;99.90
40848;DHT22;26570;50.962;5.340;2022-12-24T09:28:09;11.70;99.90
40848;DHT22;26570;50.962;5.340;2022-12-24T09:31:25;11.70;99.90
40848;DHT22;26570;50.962;5.340;2022-12-24T09:34:18;11.60;99.90
40848;DHT22;26570;50.962;5.340;2022-12-24T09:37:05;11.70;99.90
40848;DHT22;26570;50.962;5.340;2022-12-24T09:39:52;11.70;99.90
40848;DHT22;26570;50.962;5.340;2022-12-24T09:43:16;11.70;99.90
40848;DHT22;26570;50.962;5.340;2022-12-24T09:46:36;11.70;99.90
40848;DHT22;26570;50.962;5.340;2022-12-24T09:49:35;11.70;99.90
40848;DHT22;26570;50.962;5.340;2022-12-24T09:52:32;11.50;99.90
40848;DHT22;26570;50.962;5.340;2022-12-24T09:55:31;11.60;99.90
40848;DHT22;26570;50.962;5.340;2022-12-24T09:58:36;11.70;99.90
40848;DHT22;26570;50.962;5.340;2022-12-24T10:01:32;11.50;99.90
40848;DHT22;26570;50.962;5.340;2022-12-24T10:04:51;11.70;99.90
40848;DHT22;26570;50.962;5.340;2022-12-24T10:08:11;11.80;99.90
40848;DHT22;26570;50.962;5.340;2022-12-24T10:11:18;11.80;99.90
40848;DHT22;26570;50.962;5.340;2022-12-24T10:14:42;11.80;99.90
40848;DHT22;26570;50.962;5.340;2022-12-24T10:20:48;11.90;99.90
40848;DHT22;26570;50.962;5.340;2022-12-24T10:23:53;12.30;99.90
40848;DHT22;26570;50.962;5.340;2022-12-24T10:26:47;11.80;99.90
40848;DHT22;26570;50.962;5.340;2022-12-24T10:29:40;12.10;99.90
40848;DHT22;26570;50.962;5.340;2022-12-24T10:32:34;12.10;99.90
40848;DHT22;26570;50.962;5.340;2022-12-24T10:35:28;12.10;99.90
40848;DHT22;26570;50.962;5.340;2022-12-24T10:38:17;12.20;99.90
40848;DHT22;26570;50.962;5.340;2022-12-24T10:41:07;12.20;99.90
40848;DHT22;26570;50.962;5.340;2022-12-24T10:43:59;12.10;99.90
40848;DHT22;26570;50.962;5.340;2022-12-24T10:46:49;12.10;99.90
40848;DHT22;26570;50.962;5.340;2022-12-24T10:50:03;12.20;99.90
40848;DHT22;26570;50.962;5.340;2022-12-24T10:52:51;12.30;99.90
40848;DHT22;26570;50.962;5.340;2022-12-24T10:55:46;12.40;99.90
40848;DHT22;26570;50.962;5.340;2022-12-24T10:58:35;12.40;99.90
40848;DHT22;26570;50.962;5.340;2022-12-24T11:01:45;12.30;99.90
40848;DHT22;26570;50.962;5.340;2022-12-24T11:04:32;12.30;99.90
40848;DHT22;26570;50.962;5.340;2022-12-24T11:07:39;12.60;99.90
40848;DHT22;26570;50.962;5.340;2022-12-24T11:10:26;12.70;99.90
40848;DHT22;26570;50.962;5.340;2022-12-24T11:13:29;12.60;99.90
40848;DHT22;26570;50.962;5.340;2022-12-24T11:19:19;12.50;99.90
40848;DHT22;26570;50.962;5.340;2022-12-24T11:22:24;12.70;99.90
40848;DHT22;26570;50.962;5.340;2022-12-24T11:25:24;12.70;99.90
40848;DHT22;26570;50.962;5.340;2022-12-24T11:28:30;12.70;99.90
40848;DHT22;26570;50.962;5.340;2022-12-24T11:31:20;12.60;99.90
40848;DHT22;26570;50.962;5.340;2022-12-24T11:34:28;12.50;99.90
40848;DHT22;26570;50.962;5.340;2022-12-24T11:37:28;12.50;99.90
40848;DHT22;26570;50.962;5.340;2022-12-24T11:40:22;12.60;99.90
40848;DHT22;26570;50.962;5.340;2022-12-24T11:43:20;12.70;99.90
40848;DHT22;26570;50.962;5.340;2022-12-24T11:46:21;12.60;99.90
40848;DHT22;26570;50.962;5.340;2022-12-24T11:49:29;12.70;99.90
40848;DHT22;26570;50.962;5.340;2022-12-24T11:52:33;12.70;99.90
40848;DHT22;26570;50.962;5.340;2022-12-24T11:58:37;13.10;99.90
40848;DHT22;26570;50.962;5.340;2022-12-24T12:04:39;13.40;99.90
40848;DHT22;26570;50.962;5.340;2022-12-24T12:07:33;13.10;99.90
40848;DHT22;26570;50.962;5.340;2022-12-24T12:10:35;13.40;99.90
40848;DHT22;26570;50.962;5.340;2022-12-24T12:13:30;13.20;99.90
40848;DHT22;26570;50.962;5.340;2022-12-24T12:19:52;13.30;99.90
40848;DHT22;26570;50.962;5.340;2022-12-24T12:22:45;13.30;99.90
40848;DHT22;26570;50.962;5.340;2022-12-24T12:25:51;13.70;99.90
40848;DHT22;26570;50.962;5.340;2022-12-24T12:32:03;13.70;99.90
40848;DHT22;26570;50.962;5.340;2022-12-24T12:35:20;13.60;99.90
40848;DHT22;26570;50.962;5.340;2022-12-24T12:38:12;14.10;99.90
40848;DHT22;26570;50.962;5.340;2022-12-24T12:41:32;13.90;99.90
40848;DHT22;26570;50.962;5.340;2022-12-24T12:56:30;14.20;99.90
40848;DHT22;26570;50.962;5.340;2022-12-24T13:00:10;14.40;99.90
40848;DHT22;26570;50.962;5.340;2022-12-24T13:09:33;14.20;99.90
40848;DHT22;26570;50.962;5.340;2022-12-24T13:15:38;14.30;99.90
40848;DHT22;26570;50.962;5.340;2022-12-24T13:18:43;14.10;99.90
40848;DHT22;26570;50.962;5.340;2022-12-24T13:21:34;14.00;99.90
40848;DHT22;26570;50.962;5.340;2022-12-24T13:24:26;14.20;99.90
40848;DHT22;26570;50.962;5.340;2022-12-24T13:27:22;14.10;99.90
40848;DHT22;26570;50.962;5.340;2022-12-24T13:30:33;14.20;99.90
40848;DHT22;26570;50.962;5.340;2022-12-24T13:37:01;14.10;99.90
40848;DHT22;26570;50.962;5.340;2022-12-24T13:43:06;14.10;99.90
40848;DHT22;26570;50.962;5.340;2022-12-24T13:45:56;13.90;99.90
40848;DHT22;26570;50.962;5.340;2022-12-24T13:48:43;13.80;99.90
40848;DHT22;26570;50.962;5.340;2022-12-24T13:51:32;13.90;99.90
40848;DHT22;26570;50.962;5.340;2022-12-24T13:54:22;13.70;99.90
40848;DHT22;26570;50.962;5.340;2022-12-24T14:00:40;13.80;99.90
40848;DHT22;26570;50.962;5.340;2022-12-24T14:03:30;13.50;99.90
40848;DHT22;26570;50.962;5.340;2022-12-24T14:06:25;13.50;99.90
40848;DHT22;26570;50.962;5.340;2022-12-24T14:09:18;13.30;99.90
40848;DHT22;26570;50.962;5.340;2022-12-24T14:18:23;13.30;99.90
40848;DHT22;26570;50.962;5.340;2022-12-24T14:21:37;13.30;99.90
40848;DHT22;26570;50.962;5.340;2022-12-24T14:25:00;13.60;99.90
40848;DHT22;26570;50.962;5.340;2022-12-24T14:28:13;13.70;99.90
40848;DHT22;26570;50.962;5.340;2022-12-24T14:31:10;13.70;99.90
40848;DHT22;26570;50.962;5.340;2022-12-24T14:34:12;13.80;99.90
40848;DHT22;26570;50.962;5.340;2022-12-24T14:37:11;13.60;99.90
40848;DHT22;26570;50.962;5.340;2022-12-24T14:39:59;13.60;99.90
40848;DHT22;26570;50.962;5.340;2022-12-24T14:52:28;13.00;99.90
40848;DHT22;26570;50.962;5.340;2022-12-24T14:55:38;12.90;99.90
40848;DHT22;26570;50.962;5.340;2022-12-24T14:58:32;12.60;99.90
40848;DHT22;26570;50.962;5.340;2022-12-24T15:01:28;12.60;99.90
40848;DHT22;26570;50.962;5.340;2022-12-24T15:04:16;12.50;99.90
40848;DHT22;26570;50.962;5.340;2022-12-24T15:07:03;12.40;99.90
40848;DHT22;26570;50.962;5.340;2022-12-24T15:09:52;12.40;99.90
40848;DHT22;26570;50.962;5.340;2022-12-24T15:12:40;12.20;99.90
40848;DHT22;26570;50.962;5.340;2022-12-24T15:15:27;12.20;99.90
40848;DHT22;26570;50.962;5.340;2022-12-24T15:18:17;12.10;99.90
40848;DHT22;26570;50.962;5.340;2022-12-24T15:21:07;12.00;99.90
40848;DHT22;26570;50.962;5.340;2022-12-24T15:23:58;12.00;99.90
40848;DHT22;26570;50.962;5.340;2022-12-24T15:26:45;11.80;99.90
40848;DHT22;26570;50.962;5.340;2022-12-24T15:29:41;11.80;99.90
40848;DHT22;26570;50.962;5.340;2022-12-24T15:32:28;11.70;99.90
40848;DHT22;26570;50.962;5.340;2022-12-24T15:35:53;11.60;99.90
40848;DHT22;26570;50.962;5.340;2022-12-24T15:38:44;11.60;99.90
40848;DHT22;26570;50.962;5.340;2022-12-24T15:41:40;11.50;99.90
40848;DHT22;26570;50.962;5.340;2022-12-24T15:44:58;11.40;99.90
40848;DHT22;26570;50.962;5.340;2022-12-24T15:47:56;11.30;99.90
40848;DHT22;26570;50.962;5.340;2022-12-24T15:50:46;11.10;99.90
40848;DHT22;26570;50.962;5.340;2022-12-24T15:53:43;11.20;99.90
40848;DHT22;26570;50.962;5.340;2022-12-24T15:56:36;11.00;99.90
40848;DHT22;26570;50.962;5.340;2022-12-24T15:59:32;11.10;99.90
40848;DHT22;26570;50.962;5.340;2022-12-24T16:02:35;11.00;99.90
40848;DHT22;26570;50.962;5.340;2022-12-24T16:05:29;10.80;99.90
40848;DHT22;26570;50.962;5.340;2022-12-24T16:11:21;10.80;99.90
40848;DHT22;26570;50.962;5.340;2022-12-24T16:14:17;10.70;99.90
40848;DHT22;26570;50.962;5.340;2022-12-24T16:17:22;10.60;99.90
40848;DHT22;26570;50.962;5.340;2022-12-24T16:20:19;10.50;99.90
40848;DHT22;26570;50.962;5.340;2022-12-24T16:24:02;10.40;99.90
40848;DHT22;26570;50.962;5.340;2022-12-24T16:26:47;10.40;99.90
40848;DHT22;26570;50.962;5.340;2022-12-24T16:29:38;10.30;99.90
40848;DHT22;26570;50.962;5.340;2022-12-24T16:32:52;10.40;99.90
40848;DHT22;26570;50.962;5.340;2022-12-24T16:35:48;10.30;99.90
40848;DHT22;26570;50.962;5.340;2022-12-24T16:38:41;10.30;99.90
40848;DHT22;26570;50.962;5.340;2022-12-24T16:42:17;10.30;99.90
40848;DHT22;26570;50.962;5.340;2022-12-24T16:45:29;10.20;99.90
40848;DHT22;26570;50.962;5.340;2022-12-24T16:48:46;10.20;99.90
40848;DHT22;26570;50.962;5.340;2022-12-24T16:51:34;10.10;99.90
40848;DHT22;26570;50.962;5.340;2022-12-24T16:55:11;10.10;99.90
40848;DHT22;26570;50.962;5.340;2022-12-24T16:58:26;10.10;99.90
40848;DHT22;26570;50.962;5.340;2022-12-24T17:01:24;10.00;99.90
40848;DHT22;26570;50.962;5.340;2022-12-24T17:04:18;10.00;99.90
40848;DHT22;26570;50.962;5.340;2022-12-24T17:07:28;10.00;99.90
40848;DHT22;26570;50.962;5.340;2022-12-24T17:10:53;10.00;99.90
40848;DHT22;26570;50.962;5.340;2022-12-24T17:13:57;10.10;99.90
40848;DHT22;26570;50.962;5.340;2022-12-24T17:21:03;10.30;99.90
40848;DHT22;26570;50.962;5.340;2022-12-24T17:24:36;10.20;99.90
40848;DHT22;26570;50.962;5.340;2022-12-24T17:27:59;10.10;99.90
40848;DHT22;26570;50.962;5.340;2022-12-24T17:30:51;10.20;99.90
40848;DHT22;26570;50.962;5.340;2022-12-24T17:34:10;10.20;99.90
40848;DHT22;26570;50.962;5.340;2022-12-24T17:37:14;10.10;99.90
40848;DHT22;26570;50.962;5.340;2022-12-24T17:40:21;10.10;99.90
40848;DHT22;26570;50.962;5.340;2022-12-24T17:43:32;9.70;99.90
40848;DHT22;26570;50.962;5.340;2022-12-24T17:46:48;10.00;99.90
40848;DHT22;26570;50.962;5.340;2022-12-24T17:49:54;10.00;99.90
40848;DHT22;26570;50.962;5.340;2022-12-24T17:53:10;10.10;99.90
40848;DHT22;26570;50.962;5.340;2022-12-24T17:56:24;10.00;99.90
40848;DHT22;26570;50.962;5.340;2022-12-24T17:59:45;10.00;99.90
40848;DHT22;26570;50.962;5.340;2022-12-24T18:02:38;9.80;99.90
40848;DHT22;26570;50.962;5.340;2022-12-24T18:06:05;9.80;99.90
40848;DHT22;26570;50.962;5.340;2022-12-24T18:09:25;9.80;99.90
40848;DHT22;26570;50.962;5.340;2022-12-24T18:12:55;9.90;99.90
40848;DHT22;26570;50.962;5.340;2022-12-24T18:19:51;9.70;99.90
40848;DHT22;26570;50.962;5.340;2022-12-24T18:23:30;9.20;99.90
40848;DHT22;26570;50.962;5.340;2022-12-24T18:27:37;9.70;99.90
40848;DHT22;26570;50.962;5.340;2022-12-24T18:31:25;9.60;99.90
40848;DHT22;26570;50.962;5.340;2022-12-24T18:38:06;9.70;99.90
40848;DHT22;26570;50.962;5.340;2022-12-24T18:41:20;9.60;99.90
40848;DHT22;26570;50.962;5.340;2022-12-24T18:44:44;9.70;99.90
40848;DHT22;26570;50.962;5.340;2022-12-24T18:47:50;9.80;99.90
40848;DHT22;26570;50.962;5.340;2022-12-24T18:54:16;9.80;99.90
40848;DHT22;26570;50.962;5.340;2022-12-24T18:57:18;10.00;99.90
40848;DHT22;26570;50.962;5.340;2022-12-24T19:03:57;10.00;99.90
40848;DHT22;26570;50.962;5.340;2022-12-24T19:07:14;9.90;99.90
40848;DHT22;26570;50.962;5.340;2022-12-24T19:10:44;9.80;99.90
40848;DHT22;26570;50.962;5.340;2022-12-24T19:13:32;9.90;99.90
40848;DHT22;26570;50.962;5.340;2022-12-24T19:17:04;9.80;99.90
40848;DHT22;26570;50.962;5.340;2022-12-24T19:20:24;9.80;99.90
40848;DHT22;26570;50.962;5.340;2022-12-24T19:23:44;9.70;99.90
40848;DHT22;26570;50.962;5.340;2022-12-24T19:26:33;10.10;99.90
40848;DHT22;26570;50.962;5.340;2022-12-24T19:29:43;9.80;99.90
40848;DHT22;26570;50.962;5.340;2022-12-24T19:32:44;10.10;99.90
40848;DHT22;26570;50.962;5.340;2022-12-24T19:35:42;10.20;99.90
40848;DHT22;26570;50.962;5.340;2022-12-24T19:38:33;10.10;99.90
40848;DHT22;26570;50.962;5.340;2022-12-24T19:42:04;10.10;99.90
40848;DHT22;26570;50.962;5.340;2022-12-24T19:45:31;10.10;99.90
40848;DHT22;26570;50.962;5.340;2022-12-24T19:48:48;10.20;99.90
40848;DHT22;26570;50.962;5.340;2022-12-24T19:52:03;10.10;99.90
40848;DHT22;26570;50.962;5.340;2022-12-24T19:55:25;10.20;99.90
40848;DHT22;26570;50.962;5.340;2022-12-24T19:58:24;10.20;99.90
40848;DHT22;26570;50.962;5.340;2022-12-24T20:02:09;10.30;99.90
40848;DHT22;26570;50.962;5.340;2022-12-24T20:09:16;10.10;99.90
40848;DHT22;26570;50.962;5.340;2022-12-24T20:12:58;9.60;99.90
40848;DHT22;26570;50.962;5.340;2022-12-24T20:16:19;10.20;99.90
40848;DHT22;26570;50.962;5.340;2022-12-24T20:20:08;10.20;99.90
40848;DHT22;26570;50.962;5.340;2022-12-24T20:23:33;10.00;99.90
40848;DHT22;26570;50.962;5.340;2022-12-24T20:26:38;9.90;99.90
40848;DHT22;26570;50.962;5.340;2022-12-24T20:29:48;9.80;99.90
40848;DHT22;26570;50.962;5.340;2022-12-24T20:32:57;9.90;99.90
40848;DHT22;26570;50.962;5.340;2022-12-24T20:35:52;9.80;99.90
40848;DHT22;26570;50.962;5.340;2022-12-24T20:39:03;9.90;99.90
40848;DHT22;26570;50.962;5.340;2022-12-24T20:42:01;10.00;99.90
40848;DHT22;26570;50.962;5.340;2022-12-24T20:44:59;10.10;99.90
40848;DHT22;26570;50.962;5.340;2022-12-24T20:48:19;10.10;99.90
40848;DHT22;26570;50.962;5.340;2022-12-24T20:52:05;10.00;99.90
40848;DHT22;26570;50.962;5.340;2022-12-24T20:55:03;10.10;99.90
40848;DHT22;26570;50.962;5.340;2022-12-24T20:57:53;10.00;99.90
40848;DHT22;26570;50.962;5.340;2022-12-24T21:00:40;9.80;99.90
40848;DHT22;26570;50.962;5.340;2022-12-24T21:03:53;9.90;99.90
40848;DHT22;26570;50.962;5.340;2022-12-24T21:07:33;10.00;99.90
40848;DHT22;26570;50.962;5.340;2022-12-24T21:10:28;10.10;99.90
40848;DHT22;26570;50.962;5.340;2022-12-24T21:13:18;10.10;99.90
40848;DHT22;26570;50.962;5.340;2022-12-24T21:16:11;10.10;99.90
40848;DHT22;26570;50.962;5.340;2022-12-24T21:19:44;10.00;99.90
40848;DHT22;26570;50.962;5.340;2022-12-24T21:22:30;10.00;99.90
40848;DHT22;26570;50.962;5.340;2022-12-24T21:29:28;9.60;99.90
40848;DHT22;26570;50.962;5.340;2022-12-24T21:32:43;10.30;99.90
40848;DHT22;26570;50.962;5.340;2022-12-24T21:35:39;10.20;99.90
40848;DHT22;26570;50.962;5.340;2022-12-24T21:38:31;10.20;99.90
40848;DHT22;26570;50.962;5.340;2022-12-24T21:41:25;10.30;99.90
40848;DHT22;26570;50.962;5.340;2022-12-24T21:44:36;10.80;99.90
40848;DHT22;26570;50.962;5.340;2022-12-24T21:50:37;10.40;99.90
40848;DHT22;26570;50.962;5.340;2022-12-24T21:54:27;10.70;99.90
40848;DHT22;26570;50.962;5.340;2022-12-24T21:57:15;10.20;99.90
40848;DHT22;26570;50.962;5.340;2022-12-24T22:00:26;10.40;99.90
40848;DHT22;26570;50.962;5.340;2022-12-24T22:03:25;10.00;99.90
40848;DHT22;26570;50.962;5.340;2022-12-24T22:06:13;10.30;99.90
40848;DHT22;26570;50.962;5.340;2022-12-24T22:09:30;10.40;99.90
40848;DHT22;26570;50.962;5.340;2022-12-24T22:12:42;10.50;99.90
40848;DHT22;26570;50.962;5.340;2022-12-24T22:15:52;10.50;99.90
40848;DHT22;26570;50.962;5.340;2022-12-24T22:19:14;10.30;99.90
40848;DHT22;26570;50.962;5.340;2022-12-24T22:22:23;10.50;99.90